Time;durP1;ratioP1;P1;durP2;ratioP2;P2;SDS_P1;SDS_P2;PMS_P1;PMS_P2;Temp;Humidity;BMP_temperature;BMP_pressure;BME280_temperature;BME280_humidity;BME280_pressure;Samples;Min_cycle;Max_cycle;Signal;HPM_P1;HPM_P2
2022/03/25 00:02:15;;;;;;;11.15;5.97;;;9.50;92.80;;;;;;4973451;28;20027;-76
2022/03/25 00:04:41;;;;;;;9.35;5.85;;;9.50;92.90;;;;;;4973003;28;20034;-76
2022/03/25 00:07:07;;;;;;;12.48;6.60;;;9.50;93.20;;;;;;4973088;28;20023;-76
2022/03/25 00:09:33;;;;;;;14.85;6.97;;;9.50;93.60;;;;;;4973299;28;20594;-77
2022/03/25 00:11:59;;;;;;;21.20;7.07;;;9.50;94.00;;;;;;4973356;28;20097;-77
2022/03/25 00:14:25;;;;;;;14.10;6.55;;;9.50;94.40;;;;;;4972918;28;20398;-76
2022/03/25 00:16:51;;;;;;;14.07;6.95;;;9.50;95.00;;;;;;4973484;28;20038;-76
2022/03/25 00:19:17;;;;;;;12.18;6.72;;;9.50;95.40;;;;;;4972834;28;20031;-76
2022/03/25 00:21:43;;;;;;;12.05;6.57;;;9.50;95.80;;;;;;4972877;28;20034;-76
2022/03/25 00:24:08;;;;;;;15.38;7.45;;;9.40;96.60;;;;;;4973637;28;20027;-76
2022/03/25 00:26:34;;;;;;;13.10;7.50;;;9.40;97.00;;;;;;4972397;28;20042;-76
2022/03/25 00:29:00;;;;;;;12.25;7.18;;;9.50;97.70;;;;;;4972776;28;20038;-76
2022/03/25 00:31:26;;;;;;;14.95;8.35;;;9.40;98.60;;;;;;4973322;28;20041;-76
2022/03/25 00:33:52;;;;;;;17.73;7.95;;;9.40;99.50;;;;;;4972963;28;20035;-76
2022/03/25 00:36:18;;;;;;;13.82;9.00;;;9.40;99.90;;;;;;4971788;28;20074;-76
2022/03/25 00:38:45;;;;;;;14.43;8.63;;;9.50;99.90;;;;;;4973015;28;20015;-77
2022/03/25 00:41:12;;;;;;;19.67;9.63;;;9.40;99.90;;;;;;4973391;28;20030;-76
2022/03/25 00:43:38;;;;;;;14.25;8.70;;;9.40;99.90;;;;;;4972882;28;20015;-76
2022/03/25 00:46:05;;;;;;;13.38;8.68;;;9.40;99.90;;;;;;4973261;28;20387;-76
2022/03/25 00:48:32;;;;;;;13.15;8.25;;;9.40;99.90;;;;;;4972340;28;20505;-76
2022/03/25 00:50:58;;;;;;;15.35;8.68;;;9.30;99.90;;;;;;4973715;28;20027;-77
2022/03/25 00:53:25;;;;;;;17.27;9.30;;;9.30;99.90;;;;;;4976806;28;20478;-76
2022/03/25 00:55:52;;;;;;;16.08;9.32;;;9.40;99.90;;;;;;4976737;28;20113;-76
2022/03/25 00:58:18;;;;;;;12.90;8.77;;;9.30;99.90;;;;;;4976724;28;20023;-76
2022/03/25 01:00:45;;;;;;;17.42;9.82;;;9.40;99.90;;;;;;4976725;28;20029;-76
2022/03/25 01:03:11;;;;;;;15.93;9.02;;;9.30;99.90;;;;;;4976696;28;20023;-77
2022/03/25 01:05:37;;;;;;;19.00;10.15;;;9.20;99.90;;;;;;4975943;28;20446;-76
2022/03/25 01:08:04;;;;;;;18.77;9.93;;;9.20;99.90;;;;;;4976335;28;20055;-76
2022/03/25 01:10:31;;;;;;;18.30;10.07;;;9.20;99.90;;;;;;4976348;28;20037;-77
2022/03/25 01:12:57;;;;;;;15.82;9.02;;;9.20;99.90;;;;;;4976405;28;20031;-76
2022/03/25 01:15:23;;;;;;;14.85;9.40;;;9.20;99.90;;;;;;4976067;28;20360;-76
2022/03/25 01:17:49;;;;;;;20.08;9.95;;;9.20;99.90;;;;;;4976040;28;20504;-76
2022/03/25 01:20:14;;;;;;;16.58;10.40;;;9.20;99.90;;;;;;4976601;28;20027;-76
2022/03/25 01:22:40;;;;;;;16.33;9.45;;;9.20;99.90;;;;;;4976089;28;20022;-76
2022/03/25 01:25:08;;;;;;;18.63;10.20;;;9.20;99.90;;;;;;4976095;28;20186;-76
2022/03/25 01:27:37;;;;;;;18.40;10.50;;;9.20;99.90;;;;;;4976259;28;20038;-76
2022/03/25 01:30:04;;;;;;;18.90;10.68;;;9.20;99.90;;;;;;4976294;28;20538;-76
2022/03/25 01:32:30;;;;;;;16.40;10.35;;;9.10;99.90;;;;;;4976065;28;20038;-76
2022/03/25 01:34:55;;;;;;;16.80;10.85;;;9.10;99.90;;;;;;4975097;28;20034;-76
2022/03/25 01:37:23;;;;;;;19.65;12.02;;;9.10;99.90;;;;;;4976142;28;20078;-76
2022/03/25 01:39:49;;;;;;;23.92;11.48;;;9.10;99.90;;;;;;4976189;28;20360;-77
2022/03/25 01:42:15;;;;;;;18.38;10.65;;;9.00;99.90;;;;;;4976123;28;20018;-76
2022/03/25 01:44:41;;;;;;;17.35;11.55;;;9.00;99.90;;;;;;4976033;28;20030;-76
2022/03/25 01:47:08;;;;;;;21.58;11.35;;;9.10;99.90;;;;;;4975630;28;20502;-76
2022/03/25 01:49:35;;;;;;;21.23;11.27;;;9.00;99.90;;;;;;4975271;28;20042;-77
2022/03/25 01:52:03;;;;;;;17.25;11.07;;;9.00;99.90;;;;;;4976308;28;20053;-76
2022/03/25 01:54:31;;;;;;;21.13;11.75;;;9.00;99.90;;;;;;4958154;28;20447;-76
2022/03/25 01:57:06;;;;;;;17.10;11.10;;;9.00;99.90;;;;;;4975003;28;20049;-76
2022/03/25 01:59:33;;;;;;;19.27;11.77;;;9.00;99.90;;;;;;4975651;28;20023;-76
2022/03/25 02:02:01;;;;;;;22.02;10.95;;;9.00;99.90;;;;;;4975234;28;20032;-77
2022/03/25 02:04:27;;;;;;;21.25;11.75;;;9.00;99.90;;;;;;4975361;28;20027;-76
2022/03/25 02:06:53;;;;;;;20.73;12.32;;;9.00;99.90;;;;;;4975153;28;20049;-76
2022/03/25 02:09:19;;;;;;;20.38;11.23;;;9.00;99.90;;;;;;4975335;28;20058;-77
2022/03/25 02:11:45;;;;;;;18.30;11.20;;;9.00;99.90;;;;;;4975654;28;20019;-76
2022/03/25 02:14:11;;;;;;;20.55;11.50;;;8.90;99.90;;;;;;4975406;28;20031;-76
2022/03/25 02:16:43;;;;;;;22.13;13.10;;;8.90;99.90;;;;;;4974760;28;20027;-77
2022/03/25 02:19:14;;;;;;;28.20;12.45;;;8.90;99.90;;;;;;4975400;28;20034;-76
2022/03/25 02:21:41;;;;;;;20.65;13.05;;;8.90;99.90;;;;;;4975348;28;20073;-76
2022/03/25 02:24:09;;;;;;;20.67;11.55;;;8.90;99.90;;;;;;4975329;28;20101;-77
2022/03/25 02:26:36;;;;;;;18.77;11.95;;;8.90;99.90;;;;;;4974434;28;20097;-77
2022/03/25 02:29:07;;;;;;;25.45;12.32;;;8.80;99.90;;;;;;4975012;28;20037;-77
2022/03/25 02:31:33;;;;;;;19.38;11.82;;;8.80;99.90;;;;;;4975190;28;20026;-76
2022/03/25 02:34:05;;;;;;;16.85;11.63;;;8.90;99.90;;;;;;4975234;28;20406;-76
2022/03/25 02:36:42;;;;;;;17.95;11.80;;;8.90;99.90;;;;;;4974587;28;20260;-77
2022/03/25 02:39:10;;;;;;;20.02;11.88;;;9.00;99.90;;;;;;4974938;28;20031;-76
2022/03/25 02:41:36;;;;;;;20.98;12.52;;;9.00;99.90;;;;;;4956546;28;20023;-77
2022/03/25 02:44:03;;;;;;;19.00;12.48;;;8.90;99.90;;;;;;4974816;28;20039;-76
2022/03/25 02:46:28;;;;;;;21.70;12.02;;;8.90;99.90;;;;;;4974612;28;20030;-76
2022/03/25 02:48:54;;;;;;;17.90;12.18;;;8.90;99.90;;;;;;4974607;28;20037;-76
2022/03/25 02:51:20;;;;;;;23.83;12.27;;;8.90;99.90;;;;;;4974932;28;20033;-77
2022/03/25 02:53:46;;;;;;;18.90;12.02;;;8.90;99.90;;;;;;4974662;28;20098;-77
2022/03/25 02:56:11;;;;;;;25.90;12.32;;;8.90;99.90;;;;;;4974315;28;20031;-76
2022/03/25 02:58:38;;;;;;;19.88;12.65;;;8.90;99.90;;;;;;4974877;28;20031;-76
2022/03/25 03:01:06;;;;;;;18.65;11.40;;;8.90;99.90;;;;;;4973638;28;20034;-76
2022/03/25 03:03:32;;;;;;;17.75;11.80;;;8.90;99.90;;;;;;4955239;29;20054;-76
2022/03/25 03:05:58;;;;;;;18.42;11.98;;;8.90;99.90;;;;;;4955230;29;20023;-76
2022/03/25 03:08:24;;;;;;;20.95;12.52;;;8.90;99.90;;;;;;4954909;29;20042;-77
2022/03/25 03:10:49;;;;;;;20.05;11.63;;;8.80;99.90;;;;;;4955049;29;20031;-76
2022/03/25 03:13:15;;;;;;;18.50;12.30;;;8.80;99.90;;;;;;4954610;28;20034;-76
2022/03/25 03:15:41;;;;;;;21.10;12.15;;;8.90;99.90;;;;;;4965616;28;20023;-77
2022/03/25 03:18:07;;;;;;;19.38;12.07;;;8.90;99.90;;;;;;4974819;28;20030;-76
2022/03/25 03:20:33;;;;;;;17.60;11.48;;;8.80;99.90;;;;;;4974932;28;20019;-76
2022/03/25 03:22:58;;;;;;;17.90;11.77;;;8.90;99.90;;;;;;4974953;28;20027;-76
2022/03/25 03:25:27;;;;;;;17.55;10.95;;;8.90;99.90;;;;;;4974149;28;20050;-76
2022/03/25 03:27:54;;;;;;;17.42;11.25;;;8.80;99.90;;;;;;4974995;28;20026;-76
2022/03/25 03:30:20;;;;;;;17.65;11.70;;;8.90;99.90;;;;;;4974595;28;20027;-76
2022/03/25 03:32:45;;;;;;;20.00;12.75;;;8.80;99.90;;;;;;4974718;28;20037;-76
2022/03/25 03:35:12;;;;;;;21.33;12.60;;;8.70;99.90;;;;;;4974714;28;20027;-76
2022/03/25 03:37:45;;;;;;;25.65;13.05;;;8.80;99.90;;;;;;4974832;28;20479;-76
2022/03/25 03:40:14;;;;;;;23.90;11.55;;;8.80;99.90;;;;;;4974210;28;20126;-76
2022/03/25 03:42:40;;;;;;;34.45;12.85;;;8.80;99.90;;;;;;4974711;28;20027;-76
2022/03/25 03:45:08;;;;;;;16.52;11.82;;;8.70;99.90;;;;;;4974325;28;20147;-76
2022/03/25 03:47:34;;;;;;;20.45;12.18;;;8.80;99.90;;;;;;4974831;28;20027;-76
2022/03/25 03:50:00;;;;;;;18.02;11.60;;;8.80;99.90;;;;;;4974188;28;20542;-76
2022/03/25 03:52:26;;;;;;;18.17;11.68;;;8.80;99.90;;;;;;4974244;28;20118;-77
2022/03/25 03:54:52;;;;;;;16.55;11.68;;;8.80;99.90;;;;;;4974063;28;20030;-76
2022/03/25 03:57:17;;;;;;;19.27;11.70;;;8.80;99.90;;;;;;4974196;28;20061;-76
2022/03/25 03:59:43;;;;;;;21.20;12.15;;;8.80;99.90;;;;;;4974364;28;20030;-76
2022/03/25 04:02:10;;;;;;;20.83;11.90;;;8.80;99.90;;;;;;4974299;28;20058;-76
2022/03/25 04:04:36;;;;;;;19.17;11.27;;;8.70;99.90;;;;;;4973231;28;20080;-76
2022/03/25 04:07:01;;;;;;;23.35;12.65;;;8.80;99.90;;;;;;4973925;28;20070;-77
2022/03/25 04:09:28;;;;;;;20.48;12.73;;;8.80;99.90;;;;;;4956720;28;20446;-76
2022/03/25 04:11:53;;;;;;;19.70;12.63;;;8.80;99.90;;;;;;4973807;28;20149;-76
2022/03/25 04:14:20;;;;;;;21.30;12.00;;;8.80;99.90;;;;;;4974576;28;20105;-76
2022/03/25 04:16:46;;;;;;;21.30;12.85;;;8.70;99.90;;;;;;4973968;28;20033;-76
2022/03/25 04:19:12;;;;;;;21.25;13.15;;;8.70;99.90;;;;;;4974309;28;20116;-76
2022/03/25 04:21:38;;;;;;;21.83;12.35;;;8.70;99.90;;;;;;4974241;28;20102;-76
2022/03/25 04:24:04;;;;;;;19.55;13.63;;;8.60;99.90;;;;;;4973828;28;20098;-76
2022/03/25 04:26:30;;;;;;;21.85;12.60;;;8.60;99.90;;;;;;4972552;28;20506;-76
2022/03/25 04:28:55;;;;;;;20.45;12.63;;;8.60;99.90;;;;;;4956307;28;20162;-76
2022/03/25 04:31:21;;;;;;;24.92;13.65;;;8.60;99.90;;;;;;4974072;28;20093;-76
2022/03/25 04:33:47;;;;;;;21.40;13.35;;;8.60;99.90;;;;;;4973788;28;20033;-76
2022/03/25 04:36:13;;;;;;;22.38;14.18;;;8.60;99.90;;;;;;4973557;28;20465;-76
2022/03/25 04:38:39;;;;;;;22.05;14.00;;;8.60;99.90;;;;;;4973969;28;20023;-77
2022/03/25 04:41:05;;;;;;;21.88;12.85;;;8.70;99.90;;;;;;4973000;28;20031;-76
2022/03/25 04:43:30;;;;;;;21.65;13.60;;;8.70;99.90;;;;;;4974114;28;20066;-76
2022/03/25 04:45:56;;;;;;;22.58;13.88;;;8.70;99.90;;;;;;4973992;28;20038;-77
2022/03/25 04:48:22;;;;;;;22.08;12.85;;;8.70;99.90;;;;;;4973199;28;20023;-76
2022/03/25 04:50:48;;;;;;;20.60;12.57;;;8.70;99.90;;;;;;4973515;28;20034;-76
2022/03/25 04:53:13;;;;;;;19.05;12.68;;;8.70;99.90;;;;;;4972973;28;20027;-77
2022/03/25 04:55:39;;;;;;;19.25;12.32;;;8.80;99.90;;;;;;4972897;28;20031;-76
2022/03/25 04:58:05;;;;;;;18.45;12.18;;;8.80;99.90;;;;;;4973590;28;20027;-76
2022/03/25 05:00:31;;;;;;;19.83;12.85;;;8.80;99.90;;;;;;4973907;28;20023;-76
2022/03/25 05:02:56;;;;;;;19.95;12.32;;;8.80;99.90;;;;;;4973341;28;20034;-77
2022/03/25 05:05:22;;;;;;;20.25;13.38;;;8.80;99.90;;;;;;4973578;28;20039;-76
2022/03/25 05:07:50;;;;;;;25.02;12.77;;;8.80;99.90;;;;;;4973750;28;20031;-76
2022/03/25 05:10:16;;;;;;;23.15;13.82;;;8.80;99.90;;;;;;4972892;28;20105;-76
2022/03/25 05:12:43;;;;;;;23.23;13.70;;;8.80;99.90;;;;;;4954502;29;20078;-76
2022/03/25 05:15:11;;;;;;;23.92;12.95;;;8.80;99.90;;;;;;4954032;29;20074;-79
2022/03/25 05:17:47;;;;;;;21.40;13.50;;;8.80;99.90;;;;;;4954374;29;20024;-78
2022/03/25 05:20:17;;;;;;;20.00;13.48;;;8.80;99.90;;;;;;4954157;29;20601;-78
2022/03/25 05:22:44;;;;;;;20.92;13.20;;;8.80;99.90;;;;;;4954504;29;20023;-78
2022/03/25 05:25:10;;;;;;;23.23;12.80;;;8.90;99.90;;;;;;4956848;28;20047;-77
2022/03/25 05:27:51;;;;;;;21.95;12.85;;;8.80;99.90;;;;;;4973692;28;20390;-80
2022/03/25 05:30:22;;;;;;;21.92;12.93;;;8.80;99.90;;;;;;4973281;28;20554;-77
2022/03/25 05:32:48;;;;;;;20.33;13.65;;;8.80;99.90;;;;;;4973464;28;20037;-76
2022/03/25 05:35:15;;;;;;;20.85;12.98;;;8.80;99.90;;;;;;4973133;28;20027;-77
2022/03/25 05:37:40;;;;;;;22.27;12.82;;;8.80;99.90;;;;;;4975176;28;20483;-76
2022/03/25 05:40:08;;;;;;;19.48;13.35;;;8.80;99.90;;;;;;4976343;28;20030;-76
2022/03/25 05:42:35;;;;;;;22.52;13.57;;;8.80;99.90;;;;;;4975580;28;20039;-76
2022/03/25 05:45:01;;;;;;;23.08;13.75;;;8.80;99.90;;;;;;4976336;28;20070;-76
2022/03/25 05:47:27;;;;;;;20.30;13.65;;;8.80;99.90;;;;;;4975865;28;20443;-76
2022/03/25 05:49:52;;;;;;;21.38;12.85;;;8.80;99.90;;;;;;4975020;28;20034;-76
2022/03/25 05:52:18;;;;;;;23.42;13.18;;;8.80;99.90;;;;;;4974531;28;20404;-76
2022/03/25 05:54:44;;;;;;;23.77;13.60;;;8.80;99.90;;;;;;4957663;28;20050;-76
2022/03/25 05:57:10;;;;;;;20.85;13.10;;;8.80;99.90;;;;;;4975415;28;20023;-76
2022/03/25 05:59:36;;;;;;;21.70;12.88;;;8.80;99.90;;;;;;4975870;28;20053;-77
2022/03/25 06:02:02;;;;;;;22.40;12.32;;;8.80;99.90;;;;;;4975863;28;20147;-76
2022/03/25 06:04:27;;;;;;;24.92;13.38;;;8.80;99.90;;;;;;4958101;28;20030;-76
2022/03/25 06:06:53;;;;;;;25.30;13.40;;;8.80;99.90;;;;;;4975295;28;20034;-76
2022/03/25 06:09:19;;;;;;;22.73;12.90;;;8.80;99.90;;;;;;4975161;28;20027;-76
2022/03/25 06:11:45;;;;;;;19.33;11.95;;;8.80;99.90;;;;;;4975565;28;20034;-76
2022/03/25 06:14:11;;;;;;;18.92;11.63;;;8.80;99.90;;;;;;4973490;28;20034;-77
2022/03/25 06:16:39;;;;;;;20.38;12.07;;;8.90;99.90;;;;;;4980225;28;20071;-76
2022/03/25 06:19:05;;;;;;;18.45;12.57;;;8.90;99.90;;;;;;4972974;28;20026;-76
2022/03/25 06:21:31;;;;;;;18.08;12.23;;;8.90;99.90;;;;;;4972390;28;20573;-79
2022/03/25 06:23:56;;;;;;;21.88;12.85;;;8.90;99.90;;;;;;4973151;28;20023;-75
2022/03/25 06:26:22;;;;;;;21.00;12.55;;;9.00;99.90;;;;;;4972467;28;20054;-76
2022/03/25 06:28:48;;;;;;;20.23;13.10;;;9.00;99.90;;;;;;4973922;28;20034;-75
2022/03/25 06:31:13;;;;;;;24.58;13.43;;;9.00;99.90;;;;;;4973174;28;20154;-75
2022/03/25 06:33:41;;;;;;;17.73;12.18;;;9.00;99.90;;;;;;4955850;28;20476;-77
2022/03/25 06:36:13;;;;;;;19.50;12.20;;;9.00;99.90;;;;;;4973038;28;20027;-78
2022/03/25 06:38:40;;;;;;;18.90;12.13;;;9.00;99.90;;;;;;4971618;28;20023;-76
2022/03/25 06:41:07;;;;;;;21.73;11.80;;;9.10;99.90;;;;;;4972757;28;20021;-72
2022/03/25 06:43:34;;;;;;;17.42;11.93;;;9.10;99.90;;;;;;4973765;28;20027;-77
2022/03/25 06:46:00;;;;;;;18.77;12.48;;;9.20;99.90;;;;;;4974168;28;20034;-77
2022/03/25 06:48:26;;;;;;;19.70;12.57;;;9.30;99.90;;;;;;4954748;28;20027;-75
2022/03/25 06:50:53;;;;;;;19.25;11.80;;;9.30;99.90;;;;;;4956636;28;20425;-79
2022/03/25 06:53:19;;;;;;;20.85;11.73;;;9.30;99.90;;;;;;4956002;28;20031;-76
2022/03/25 06:55:45;;;;;;;17.88;11.65;;;9.30;99.90;;;;;;4974009;28;20030;-76
2022/03/25 06:58:11;;;;;;;16.00;11.25;;;9.40;99.90;;;;;;4974210;28;20509;-76
2022/03/25 07:00:37;;;;;;;18.50;11.93;;;9.40;99.90;;;;;;4956763;28;20023;-77
2022/03/25 07:03:04;;;;;;;17.30;10.70;;;9.40;99.90;;;;;;4974333;28;20034;-76
2022/03/25 07:05:31;;;;;;;16.67;10.43;;;9.40;99.90;;;;;;4955492;28;20015;-77
2022/03/25 07:07:58;;;;;;;16.67;11.05;;;9.50;99.90;;;;;;4974324;28;20043;-76
2022/03/25 07:10:26;;;;;;;21.35;10.98;;;9.50;99.90;;;;;;4972637;28;20070;-75
2022/03/25 07:12:53;;;;;;;21.40;12.10;;;9.50;99.90;;;;;;4955407;28;20070;-76
2022/03/25 07:15:20;;;;;;;20.02;12.30;;;9.60;99.90;;;;;;4972309;28;20065;-76
2022/03/25 07:17:47;;;;;;;18.77;11.35;;;9.60;99.90;;;;;;4972896;28;20089;-76
2022/03/25 07:20:15;;;;;;;15.75;10.38;;;9.70;99.90;;;;;;4972384;28;20026;-76
2022/03/25 07:22:47;;;;;;;20.85;11.90;;;9.70;99.90;;;;;;4972412;28;20023;-75
2022/03/25 07:25:14;;;;;;;15.68;11.18;;;9.70;99.90;;;;;;4971934;28;20050;-76
2022/03/25 07:27:41;;;;;;;17.83;11.48;;;9.70;99.90;;;;;;4972619;28;20031;-78
2022/03/25 07:30:08;;;;;;;18.02;10.48;;;9.80;99.90;;;;;;4972469;28;20023;-75
2022/03/25 07:32:33;;;;;;;16.48;11.60;;;9.80;99.90;;;;;;4972548;28;20062;-77
2022/03/25 07:34:59;;;;;;;17.40;10.68;;;9.90;99.90;;;;;;4972956;28;20063;-76
2022/03/25 07:37:25;;;;;;;16.83;11.15;;;10.00;99.90;;;;;;4972764;28;20023;-75
2022/03/25 07:39:50;;;;;;;15.43;9.45;;;10.00;99.90;;;;;;4973340;28;20023;-76
2022/03/25 07:42:16;;;;;;;14.05;9.65;;;10.00;99.90;;;;;;4973101;28;20144;-75
2022/03/25 07:44:42;;;;;;;14.80;10.65;;;10.10;99.90;;;;;;4972832;28;20023;-75
2022/03/25 07:47:11;;;;;;;12.93;9.48;;;10.20;99.90;;;;;;4973527;28;20023;-75
2022/03/25 07:49:38;;;;;;;17.00;10.43;;;10.30;99.90;;;;;;4972903;28;20474;-77
2022/03/25 07:52:05;;;;;;;14.95;9.18;;;10.30;99.90;;;;;;4955713;28;20412;-76
2022/03/25 07:54:31;;;;;;;16.25;9.75;;;10.30;99.90;;;;;;4972714;28;20074;-76
2022/03/25 07:56:58;;;;;;;16.00;9.63;;;10.40;99.90;;;;;;4973325;28;20027;-76
2022/03/25 07:59:28;;;;;;;17.90;9.63;;;10.40;99.90;;;;;;4973239;28;20050;-75
2022/03/25 08:01:54;;;;;;;16.25;9.70;;;10.60;99.90;;;;;;4973130;28;20027;-75
2022/03/25 08:04:24;;;;;;;15.18;9.38;;;10.60;99.90;;;;;;4955812;28;20050;-75
2022/03/25 08:06:53;;;;;;;12.82;9.23;;;10.70;99.90;;;;;;4973048;28;20026;-75
2022/03/25 08:09:20;;;;;;;15.27;9.05;;;10.80;99.90;;;;;;4972842;28;20062;-76
2022/03/25 08:11:46;;;;;;;16.77;10.32;;;10.90;99.90;;;;;;4972212;28;20026;-75
2022/03/25 08:14:16;;;;;;;18.75;10.55;;;11.00;99.90;;;;;;4970305;28;20503;-75
2022/03/25 08:16:45;;;;;;;16.50;9.25;;;11.30;99.90;;;;;;4972617;28;20022;-75
2022/03/25 08:19:12;;;;;;;15.18;9.57;;;11.40;99.90;;;;;;4972099;28;20026;-76
2022/03/25 08:21:38;;;;;;;13.73;8.95;;;11.50;99.90;;;;;;4972957;28;20025;-75
2022/03/25 08:29:33;;;;;;;13.88;8.48;;;11.50;99.90;;;;;;4971535;28;20114;-75
2022/03/25 08:31:59;;;;;;;18.08;8.98;;;11.80;99.90;;;;;;4971740;28;20109;-75
2022/03/25 08:34:24;;;;;;;13.38;8.60;;;11.80;99.90;;;;;;4971946;28;20037;-75
2022/03/25 08:36:51;;;;;;;16.75;8.68;;;11.90;99.90;;;;;;4971621;28;20034;-75
2022/03/25 08:39:17;;;;;;;15.15;8.48;;;12.00;99.90;;;;;;4955343;28;20023;-76
2022/03/25 08:41:43;;;;;;;12.15;7.10;;;12.00;99.90;;;;;;4971988;28;20570;-75
2022/03/25 08:44:09;;;;;;;11.75;7.88;;;11.80;99.90;;;;;;4972791;28;20372;-76
2022/03/25 08:46:35;;;;;;;12.45;8.10;;;11.60;99.90;;;;;;4954827;28;20405;-75
2022/03/25 08:49:02;;;;;;;10.73;7.45;;;11.60;99.90;;;;;;4972801;28;20026;-76
2022/03/25 08:51:28;;;;;;;13.05;8.05;;;11.60;99.90;;;;;;4955971;28;20030;-75
2022/03/25 08:53:54;;;;;;;17.05;8.05;;;11.60;99.90;;;;;;4973747;28;20154;-74
2022/03/25 08:56:21;;;;;;;16.42;7.03;;;11.80;99.90;;;;;;4973545;28;20038;-75
2022/03/25 08:58:47;;;;;;;16.17;9.18;;;12.10;99.90;;;;;;4973511;28;20074;-76
2022/03/25 09:01:13;;;;;;;12.65;7.47;;;12.30;99.90;;;;;;4973204;28;20038;-76
2022/03/25 09:03:39;;;;;;;12.05;6.22;;;12.20;99.90;;;;;;4972709;28;20019;-76
2022/03/25 10:19:25;;;;;;;8.32;5.38;;;14.10;99.90;;;;;;6037120;23;20032;-75
2022/03/25 10:21:55;;;;;;;10.00;5.57;;;14.40;99.90;;;;;;4968434;28;20508;-81
2022/03/25 10:24:40;;;;;;;9.57;5.28;;;14.50;99.90;;;;;;4972317;28;20030;-75
2022/03/25 10:27:07;;;;;;;8.52;5.18;;;14.40;99.90;;;;;;4954414;28;20034;-75
2022/03/25 10:29:35;;;;;;;8.98;5.18;;;14.30;99.90;;;;;;4982008;28;20450;-75
2022/03/25 10:32:23;;;;;;;14.52;6.22;;;14.00;99.90;;;;;;4980603;28;20022;-75
2022/03/25 10:35:10;;;;;;;10.57;6.00;;;14.00;99.90;;;;;;4975608;28;20031;-75
2022/03/25 10:37:55;;;;;;;19.48;6.32;;;13.90;99.90;;;;;;4971603;28;20074;-75
2022/03/25 10:40:21;;;;;;;9.40;5.78;;;14.10;99.90;;;;;;4975144;28;20046;-75
2022/03/25 10:43:16;;;;;;;9.48;5.43;;;14.40;99.80;;;;;;4973375;28;20482;-75
2022/03/25 10:45:42;;;;;;;10.80;5.90;;;14.70;98.50;;;;;;4943253;29;20039;-79
2022/03/25 10:48:20;;;;;;;7.57;5.03;;;14.60;98.80;;;;;;4955461;28;20058;-74
2022/03/25 10:50:59;;;;;;;8.90;5.45;;;14.70;97.70;;;;;;4974359;28;20022;-75
2022/03/25 10:53:27;;;;;;;12.80;5.60;;;14.60;97.30;;;;;;4973073;28;20045;-74
2022/03/25 10:56:06;;;;;;;10.13;5.10;;;14.40;97.40;;;;;;4985612;28;20022;-74
2022/03/25 10:58:34;;;;;;;9.85;5.72;;;14.50;98.60;;;;;;4973722;28;20033;-74
2022/03/25 11:01:00;;;;;;;10.77;5.97;;;14.40;98.40;;;;;;4973208;28;20027;-74
2022/03/25 11:03:27;;;;;;;11.38;5.22;;;14.60;98.40;;;;;;4974807;28;20046;-74
2022/03/25 11:05:53;;;;;;;13.18;5.10;;;14.70;98.00;;;;;;4971833;28;20026;-74
2022/03/25 11:08:20;;;;;;;9.68;5.22;;;14.80;97.30;;;;;;4974584;28;20026;-74
2022/03/25 11:10:45;;;;;;;11.23;5.78;;;15.00;96.80;;;;;;4972498;28;20025;-75
2022/03/25 11:13:11;;;;;;;10.63;5.30;;;15.20;96.60;;;;;;4974388;28;20102;-73
2022/03/25 11:15:39;;;;;;;8.48;5.15;;;15.50;96.50;;;;;;4972076;28;20023;-72
2022/03/25 11:18:06;;;;;;;7.40;5.18;;;15.30;95.00;;;;;;4974776;28;20055;-74
2022/03/25 11:20:31;;;;;;;9.77;5.00;;;15.40;94.70;;;;;;4971150;28;20387;-75
2022/03/25 11:23:21;;;;;;;9.63;4.88;;;15.60;94.40;;;;;;4971194;28;20033;-73
2022/03/25 11:25:50;;;;;;;10.82;4.88;;;15.40;93.20;;;;;;4964436;28;20110;-73
2022/03/25 11:28:26;;;;;;;10.55;4.95;;;15.60;93.60;;;;;;4972837;28;20142;-74
2022/03/25 11:31:05;;;;;;;9.25;4.53;;;16.00;92.30;;;;;;4969886;28;20097;-74
2022/03/25 11:33:31;;;;;;;7.50;4.40;;;15.90;91.60;;;;;;4966384;28;20019;-73
2022/03/25 11:36:15;;;;;;;6.95;4.50;;;15.80;91.50;;;;;;4969109;28;20533;-73
2022/03/25 11:38:44;;;;;;;10.52;4.93;;;16.00;91.70;;;;;;4969476;28;20026;-75
2022/03/25 11:41:28;;;;;;;9.32;4.53;;;16.30;90.90;;;;;;4968664;28;20019;-74
2022/03/25 11:44:15;;;;;;;13.27;4.65;;;16.50;91.00;;;;;;4970110;28;20098;-74
2022/03/25 11:47:02;;;;;;;7.10;4.30;;;16.80;88.00;;;;;;4971816;28;20031;-75
2022/03/25 11:49:32;;;;;;;9.85;5.20;;;16.50;88.20;;;;;;4956703;28;20039;-75
2022/03/25 11:52:30;;;;;;;9.20;4.60;;;16.70;88.10;;;;;;4970477;28;20027;-75
2022/03/25 11:54:59;;;;;;;10.80;4.97;;;16.50;87.10;;;;;;4970756;28;20027;-74
2022/03/25 11:57:25;;;;;;;7.20;4.32;;;16.70;86.30;;;;;;4952478;28;20039;-74
2022/03/25 11:59:53;;;;;;;9.60;4.72;;;16.60;83.10;;;;;;4975947;28;20041;-81
2022/03/25 12:02:40;;;;;;;12.05;4.28;;;16.90;83.50;;;;;;4965099;28;20022;-77
2022/03/25 12:05:26;;;;;;;8.25;4.60;;;16.60;80.30;;;;;;4952400;28;20371;-76
2022/03/25 12:08:20;;;;;;;7.75;4.65;;;16.60;79.60;;;;;;4968886;28;21394;-75
2022/03/25 12:10:47;;;;;;;9.98;4.45;;;16.80;79.10;;;;;;4970634;28;20461;-75
2022/03/25 12:13:13;;;;;;;8.10;4.18;;;16.90;75.60;;;;;;4968606;28;20096;-74
2022/03/25 12:15:46;;;;;;;8.75;3.85;;;16.50;71.90;;;;;;4975751;28;20050;-74
2022/03/25 12:18:46;;;;;;;8.45;3.80;;;16.50;71.80;;;;;;4971117;28;20106;-73
2022/03/25 12:21:20;;;;;;;44.22;6.38;;;16.50;68.80;;;;;;4972976;28;20050;-75
2022/03/25 12:23:58;;;;;;;19.50;4.30;;;17.00;72.00;;;;;;4972684;28;20058;-74
2022/03/25 12:26:37;;;;;;;12.18;4.10;;;17.10;66.20;;;;;;4956411;28;20495;-73
2022/03/25 12:29:06;;;;;;;7.95;3.55;;;17.00;60.90;;;;;;4966745;28;20043;-74
2022/03/25 12:31:32;;;;;;;8.43;4.00;;;17.00;59.40;;;;;;4970596;28;20018;-74
2022/03/25 12:34:05;;;;;;;11.18;4.75;;;16.80;56.80;;;;;;4971572;28;20177;-73
2022/03/25 12:36:52;;;;;;;6.85;3.58;;;16.90;56.70;;;;;;4972232;28;20041;-74
2022/03/25 12:39:18;;;;;;;6.95;3.17;;;17.30;56.70;;;;;;4981975;28;20105;-73
2022/03/25 12:41:48;;;;;;;9.73;3.85;;;17.40;56.90;;;;;;4975646;28;20531;-73
2022/03/25 12:44:24;;;;;;;6.30;3.50;;;17.60;56.40;;;;;;4975596;28;20023;-74
2022/03/25 12:46:51;;;;;;;7.68;3.63;;;17.50;54.00;;;;;;4978097;28;20042;-74
2022/03/25 12:49:17;;;;;;;7.38;3.85;;;17.40;53.70;;;;;;4958125;28;20049;-74
2022/03/25 12:51:55;;;;;;;7.90;3.75;;;17.90;55.10;;;;;;4959121;28;20459;-75
2022/03/25 12:54:20;;;;;;;6.85;3.38;;;18.00;55.10;;;;;;4976729;28;20402;-74
2022/03/25 12:57:01;;;;;;;12.00;3.72;;;18.40;54.70;;;;;;4975403;28;20034;-75
2022/03/25 12:59:28;;;;;;;10.77;3.45;;;18.20;53.20;;;;;;4959665;28;20431;-75
2022/03/25 13:01:54;;;;;;;6.13;3.50;;;17.90;52.40;;;;;;4956690;28;20391;-74
2022/03/25 13:04:31;;;;;;;7.07;3.53;;;17.80;52.90;;;;;;4974084;28;20023;-74
2022/03/25 13:07:13;;;;;;;12.70;3.03;;;17.80;52.30;;;;;;4967792;28;20027;-74
2022/03/25 13:09:55;;;;;;;8.93;3.70;;;17.60;51.30;;;;;;4972274;28;20049;-74
2022/03/25 13:12:31;;;;;;;6.40;3.28;;;17.60;51.40;;;;;;4967386;28;20031;-74
2022/03/25 13:14:58;;;;;;;7.05;3.67;;;17.70;51.10;;;;;;4968179;28;20027;-73
2022/03/25 13:17:35;;;;;;;6.53;3.83;;;17.70;49.80;;;;;;4976241;28;20037;-74
2022/03/25 13:20:03;;;;;;;10.65;3.42;;;17.70;48.90;;;;;;4970689;28;20034;-74
2022/03/25 13:22:29;;;;;;;7.28;2.72;;;17.60;48.70;;;;;;4973053;28;20039;-74
2022/03/25 13:24:57;;;;;;;5.35;2.88;;;17.70;48.40;;;;;;4972994;28;20090;-74
2022/03/25 13:27:23;;;;;;;7.13;3.10;;;17.40;46.70;;;;;;4964503;28;20023;-74
2022/03/25 13:29:50;;;;;;;6.20;2.92;;;17.40;46.10;;;;;;4966071;28;20513;-74
2022/03/25 13:32:32;;;;;;;7.32;3.40;;;17.60;47.90;;;;;;4968101;28;20565;-73
2022/03/25 13:35:05;;;;;;;11.35;3.00;;;17.70;46.50;;;;;;4972954;28;20027;-73
2022/03/25 13:37:32;;;;;;;9.60;3.33;;;17.50;42.90;;;;;;4973543;28;20045;-73
2022/03/25 13:39:58;;;;;;;9.60;3.20;;;17.50;43.90;;;;;;4974626;28;20034;-73
2022/03/25 13:42:31;;;;;;;5.63;3.00;;;17.40;44.00;;;;;;4980397;28;20030;-73
2022/03/25 13:45:11;;;;;;;6.05;3.28;;;17.30;43.00;;;;;;4968763;28;20065;-73
2022/03/25 13:47:37;;;;;;;5.05;3.00;;;17.40;43.80;;;;;;4975987;28;20026;-75
2022/03/25 13:50:17;;;;;;;7.72;3.13;;;17.60;43.50;;;;;;4973439;28;20094;-75
2022/03/25 13:52:59;;;;;;;7.80;3.10;;;17.40;42.00;;;;;;4975806;28;20025;-75
2022/03/25 13:55:33;;;;;;;10.40;3.72;;;17.40;41.80;;;;;;4977506;28;20023;-75
2022/03/25 13:58:00;;;;;;;5.88;3.15;;;17.60;42.50;;;;;;4958018;28;20023;-75
2022/03/25 14:00:31;;;;;;;5.50;3.20;;;17.50;43.00;;;;;;4956120;28;20043;-75
2022/03/25 14:02:58;;;;;;;5.38;3.35;;;17.30;47.20;;;;;;4989646;28;20026;-76
2022/03/25 14:05:25;;;;;;;4.75;2.90;;;17.50;44.00;;;;;;4976182;28;20078;-76
2022/03/25 14:07:52;;;;;;;6.07;3.42;;;17.50;44.00;;;;;;4974531;28;20049;-75